Terminal Aerodrome Forecast
Issued by NWS

Current Version | Previous Version | Text Only | Print | Product List | Glossary Off
Versions: 1 2 3 4 5 6 7 8 9 10 11 12 13 14 15 16 17 18 19 20 21 22 23 24 25

035
FTUS41 KPBZ 301306 AAA
TAFMGW
TAF AMD
KMGW 301306Z 3013/0112 VRB03KT P6SM SKC
     FM301600 10005KT P6SM SCT035
     FM302000 12005KT 3SM -RA OVC035
     FM302300 12005KT 2SM -RA BR OVC020
     FM010500 15007KT 4SM -RA OVC007=

USA.gov is the U.S. government's official web portal to all federal, state and local government web resources and services.